sensor_id;sensor_type;location;lat;lon;timestamp;P1;durP1;ratioP1;P2;durP2;ratioP2
261;SDS011;114;48.260;10.988;2023-07-13T00:00:06;7.90;;;7.10;;
261;SDS011;114;48.260;10.988;2023-07-13T00:02:35;8.17;;;6.40;;
261;SDS011;114;48.260;10.988;2023-07-13T00:05:00;6.57;;;5.97;;
261;SDS011;114;48.260;10.988;2023-07-13T00:07:26;11.70;;;7.00;;
261;SDS011;114;48.260;10.988;2023-07-13T00:09:52;9.40;;;5.83;;
261;SDS011;114;48.260;10.988;2023-07-13T00:12:22;14.83;;;6.20;;
261;SDS011;114;48.260;10.988;2023-07-13T00:14:50;7.20;;;6.53;;
261;SDS011;114;48.260;10.988;2023-07-13T00:17:16;9.07;;;7.33;;
261;SDS011;114;48.260;10.988;2023-07-13T00:19:42;11.77;;;7.97;;
261;SDS011;114;48.260;10.988;2023-07-13T00:22:07;12.50;;;6.80;;
261;SDS011;114;48.260;10.988;2023-07-13T00:24:33;11.17;;;7.27;;
261;SDS011;114;48.260;10.988;2023-07-13T00:27:01;8.77;;;6.40;;
261;SDS011;114;48.260;10.988;2023-07-13T00:29:27;10.10;;;7.20;;
261;SDS011;114;48.260;10.988;2023-07-13T00:31:52;10.50;;;7.50;;
261;SDS011;114;48.260;10.988;2023-07-13T00:34:18;13.53;;;6.80;;
261;SDS011;114;48.260;10.988;2023-07-13T00:36:43;8.87;;;6.40;;
261;SDS011;114;48.260;10.988;2023-07-13T00:39:09;10.93;;;6.50;;
261;SDS011;114;48.260;10.988;2023-07-13T00:41:35;8.13;;;6.67;;
261;SDS011;114;48.260;10.988;2023-07-13T00:44:02;15.93;;;7.73;;
261;SDS011;114;48.260;10.988;2023-07-13T00:46:29;10.13;;;7.90;;
261;SDS011;114;48.260;10.988;2023-07-13T00:48:57;10.13;;;7.50;;
261;SDS011;114;48.260;10.988;2023-07-13T00:51:31;10.37;;;7.40;;
261;SDS011;114;48.260;10.988;2023-07-13T00:54:04;11.40;;;7.27;;
261;SDS011;114;48.260;10.988;2023-07-13T00:56:34;13.40;;;7.00;;
261;SDS011;114;48.260;10.988;2023-07-13T00:59:03;16.80;;;6.63;;
261;SDS011;114;48.260;10.988;2023-07-13T01:01:31;10.63;;;6.43;;
261;SDS011;114;48.260;10.988;2023-07-13T01:03:57;12.50;;;6.13;;
261;SDS011;114;48.260;10.988;2023-07-13T01:06:23;8.30;;;6.50;;
261;SDS011;114;48.260;10.988;2023-07-13T01:08:49;14.67;;;7.43;;
261;SDS011;114;48.260;10.988;2023-07-13T01:11:19;8.03;;;6.50;;
261;SDS011;114;48.260;10.988;2023-07-13T01:13:46;17.70;;;7.23;;
261;SDS011;114;48.260;10.988;2023-07-13T01:16:15;14.23;;;6.70;;
261;SDS011;114;48.260;10.988;2023-07-13T01:18:47;12.53;;;7.03;;
261;SDS011;114;48.260;10.988;2023-07-13T01:21:12;17.50;;;7.63;;
261;SDS011;114;48.260;10.988;2023-07-13T01:23:39;14.57;;;6.53;;
261;SDS011;114;48.260;10.988;2023-07-13T01:26:05;11.20;;;6.70;;
261;SDS011;114;48.260;10.988;2023-07-13T01:28:30;8.87;;;6.40;;
261;SDS011;114;48.260;10.988;2023-07-13T01:30:57;14.03;;;6.50;;
261;SDS011;114;48.260;10.988;2023-07-13T01:33:24;13.73;;;7.20;;
261;SDS011;114;48.260;10.988;2023-07-13T01:35:50;10.43;;;6.80;;
261;SDS011;114;48.260;10.988;2023-07-13T01:38:17;15.37;;;6.70;;
261;SDS011;114;48.260;10.988;2023-07-13T01:40:44;14.73;;;6.20;;
261;SDS011;114;48.260;10.988;2023-07-13T01:43:10;13.77;;;5.70;;
261;SDS011;114;48.260;10.988;2023-07-13T01:45:36;11.90;;;6.43;;
261;SDS011;114;48.260;10.988;2023-07-13T01:48:02;11.27;;;6.30;;
261;SDS011;114;48.260;10.988;2023-07-13T01:50:28;12.30;;;6.63;;
261;SDS011;114;48.260;10.988;2023-07-13T01:52:54;11.03;;;5.87;;
261;SDS011;114;48.260;10.988;2023-07-13T01:55:20;17.53;;;6.10;;
261;SDS011;114;48.260;10.988;2023-07-13T01:57:47;9.87;;;6.63;;
261;SDS011;114;48.260;10.988;2023-07-13T02:00:13;14.60;;;6.10;;
261;SDS011;114;48.260;10.988;2023-07-13T02:02:39;12.03;;;6.33;;
261;SDS011;114;48.260;10.988;2023-07-13T02:05:06;9.83;;;6.23;;
261;SDS011;114;48.260;10.988;2023-07-13T02:07:32;7.73;;;6.43;;
261;SDS011;114;48.260;10.988;2023-07-13T02:09:58;10.57;;;6.27;;
261;SDS011;114;48.260;10.988;2023-07-13T02:12:23;17.13;;;6.03;;
261;SDS011;114;48.260;10.988;2023-07-13T02:14:49;12.00;;;6.17;;
261;SDS011;114;48.260;10.988;2023-07-13T02:17:15;13.07;;;6.40;;
261;SDS011;114;48.260;10.988;2023-07-13T02:19:40;9.83;;;6.70;;
261;SDS011;114;48.260;10.988;2023-07-13T02:22:06;10.60;;;7.77;;
261;SDS011;114;48.260;10.988;2023-07-13T02:24:32;8.90;;;6.53;;
261;SDS011;114;48.260;10.988;2023-07-13T02:26:57;7.97;;;6.30;;
261;SDS011;114;48.260;10.988;2023-07-13T02:29:23;16.87;;;6.70;;
261;SDS011;114;48.260;10.988;2023-07-13T02:31:49;6.57;;;6.07;;
261;SDS011;114;48.260;10.988;2023-07-13T02:34:15;6.80;;;6.10;;
261;SDS011;114;48.260;10.988;2023-07-13T02:36:41;8.80;;;6.53;;
261;SDS011;114;48.260;10.988;2023-07-13T02:39:11;9.03;;;6.30;;
261;SDS011;114;48.260;10.988;2023-07-13T02:41:38;6.53;;;5.80;;
261;SDS011;114;48.260;10.988;2023-07-13T02:44:04;10.83;;;5.77;;
261;SDS011;114;48.260;10.988;2023-07-13T02:46:31;5.90;;;5.33;;
261;SDS011;114;48.260;10.988;2023-07-13T02:48:57;8.00;;;5.00;;
261;SDS011;114;48.260;10.988;2023-07-13T02:51:23;7.20;;;5.10;;
261;SDS011;114;48.260;10.988;2023-07-13T02:53:48;7.83;;;5.03;;
261;SDS011;114;48.260;10.988;2023-07-13T02:56:14;6.30;;;4.90;;
261;SDS011;114;48.260;10.988;2023-07-13T02:58:40;9.53;;;4.60;;
261;SDS011;114;48.260;10.988;2023-07-13T03:01:07;13.87;;;5.40;;
261;SDS011;114;48.260;10.988;2023-07-13T03:03:34;9.70;;;4.87;;
261;SDS011;114;48.260;10.988;2023-07-13T03:06:00;7.13;;;5.30;;
261;SDS011;114;48.260;10.988;2023-07-13T03:08:27;8.97;;;5.37;;
261;SDS011;114;48.260;10.988;2023-07-13T03:11:02;8.90;;;5.27;;
261;SDS011;114;48.260;10.988;2023-07-13T03:13:33;5.53;;;4.83;;
261;SDS011;114;48.260;10.988;2023-07-13T03:15:59;7.43;;;4.87;;
261;SDS011;114;48.260;10.988;2023-07-13T03:18:26;7.53;;;5.03;;
261;SDS011;114;48.260;10.988;2023-07-13T03:20:53;15.30;;;5.20;;
261;SDS011;114;48.260;10.988;2023-07-13T03:23:19;5.53;;;4.60;;
261;SDS011;114;48.260;10.988;2023-07-13T03:25:45;7.27;;;5.50;;
261;SDS011;114;48.260;10.988;2023-07-13T03:28:12;5.97;;;4.40;;
261;SDS011;114;48.260;10.988;2023-07-13T03:30:38;8.40;;;4.70;;
261;SDS011;114;48.260;10.988;2023-07-13T03:33:04;9.50;;;5.30;;
261;SDS011;114;48.260;10.988;2023-07-13T03:35:30;5.37;;;4.03;;
261;SDS011;114;48.260;10.988;2023-07-13T03:37:57;6.73;;;4.50;;
261;SDS011;114;48.260;10.988;2023-07-13T03:40:24;9.93;;;5.00;;
261;SDS011;114;48.260;10.988;2023-07-13T03:42:51;4.43;;;4.03;;
261;SDS011;114;48.260;10.988;2023-07-13T03:45:17;10.10;;;4.17;;
261;SDS011;114;48.260;10.988;2023-07-13T03:47:43;7.67;;;4.77;;
261;SDS011;114;48.260;10.988;2023-07-13T03:50:09;10.83;;;4.50;;
261;SDS011;114;48.260;10.988;2023-07-13T03:52:35;5.03;;;4.60;;
261;SDS011;114;48.260;10.988;2023-07-13T03:55:01;10.50;;;4.67;;
261;SDS011;114;48.260;10.988;2023-07-13T03:57:27;8.23;;;5.10;;
261;SDS011;114;48.260;10.988;2023-07-13T03:59:52;5.33;;;4.33;;
261;SDS011;114;48.260;10.988;2023-07-13T04:02:18;8.30;;;5.00;;
261;SDS011;114;48.260;10.988;2023-07-13T04:04:44;7.43;;;4.73;;
261;SDS011;114;48.260;10.988;2023-07-13T04:07:10;10.00;;;5.37;;
261;SDS011;114;48.260;10.988;2023-07-13T04:09:36;8.00;;;5.07;;
261;SDS011;114;48.260;10.988;2023-07-13T04:12:01;12.23;;;5.23;;
261;SDS011;114;48.260;10.988;2023-07-13T04:14:28;8.23;;;4.93;;
261;SDS011;114;48.260;10.988;2023-07-13T04:16:53;6.40;;;4.77;;
261;SDS011;114;48.260;10.988;2023-07-13T04:19:22;5.67;;;4.10;;
261;SDS011;114;48.260;10.988;2023-07-13T04:21:48;6.20;;;4.00;;
261;SDS011;114;48.260;10.988;2023-07-13T04:24:14;4.40;;;3.40;;
261;SDS011;114;48.260;10.988;2023-07-13T04:26:39;9.07;;;3.40;;
261;SDS011;114;48.260;10.988;2023-07-13T04:29:05;7.37;;;3.80;;
261;SDS011;114;48.260;10.988;2023-07-13T04:31:32;4.00;;;3.57;;
261;SDS011;114;48.260;10.988;2023-07-13T04:33:58;8.13;;;3.77;;
261;SDS011;114;48.260;10.988;2023-07-13T04:36:24;7.80;;;3.63;;
261;SDS011;114;48.260;10.988;2023-07-13T04:38:52;4.80;;;3.40;;
261;SDS011;114;48.260;10.988;2023-07-13T04:41:18;6.47;;;3.47;;
261;SDS011;114;48.260;10.988;2023-07-13T04:43:45;6.93;;;3.57;;
261;SDS011;114;48.260;10.988;2023-07-13T04:46:13;10.20;;;3.90;;
261;SDS011;114;48.260;10.988;2023-07-13T04:48:42;11.87;;;4.30;;
261;SDS011;114;48.260;10.988;2023-07-13T04:51:08;8.93;;;4.43;;
261;SDS011;114;48.260;10.988;2023-07-13T04:53:34;14.20;;;5.23;;
261;SDS011;114;48.260;10.988;2023-07-13T04:56:00;8.17;;;5.17;;
261;SDS011;114;48.260;10.988;2023-07-13T04:58:27;8.50;;;4.80;;
261;SDS011;114;48.260;10.988;2023-07-13T05:00:52;13.90;;;4.43;;
261;SDS011;114;48.260;10.988;2023-07-13T05:03:24;4.67;;;4.27;;
261;SDS011;114;48.260;10.988;2023-07-13T05:05:59;7.17;;;3.60;;
261;SDS011;114;48.260;10.988;2023-07-13T05:08:30;9.27;;;3.80;;
261;SDS011;114;48.260;10.988;2023-07-13T05:10:55;5.83;;;4.03;;
261;SDS011;114;48.260;10.988;2023-07-13T05:13:22;5.17;;;4.10;;
261;SDS011;114;48.260;10.988;2023-07-13T05:16:09;7.60;;;3.50;;
261;SDS011;114;48.260;10.988;2023-07-13T05:18:37;4.97;;;4.17;;
261;SDS011;114;48.260;10.988;2023-07-13T05:21:07;4.33;;;3.87;;
261;SDS011;114;48.260;10.988;2023-07-13T05:23:34;7.70;;;4.70;;
261;SDS011;114;48.260;10.988;2023-07-13T05:26:01;7.17;;;4.07;;
261;SDS011;114;48.260;10.988;2023-07-13T05:28:27;11.30;;;4.03;;
261;SDS011;114;48.260;10.988;2023-07-13T05:30:53;5.47;;;3.83;;
261;SDS011;114;48.260;10.988;2023-07-13T05:33:19;4.97;;;3.37;;
261;SDS011;114;48.260;10.988;2023-07-13T05:35:45;7.03;;;2.77;;
261;SDS011;114;48.260;10.988;2023-07-13T05:38:11;12.40;;;3.43;;
261;SDS011;114;48.260;10.988;2023-07-13T05:40:37;8.23;;;3.00;;
261;SDS011;114;48.260;10.988;2023-07-13T05:43:03;6.03;;;3.20;;
261;SDS011;114;48.260;10.988;2023-07-13T05:45:29;7.90;;;3.00;;
261;SDS011;114;48.260;10.988;2023-07-13T05:47:54;6.33;;;3.00;;
261;SDS011;114;48.260;10.988;2023-07-13T05:50:20;3.60;;;2.60;;
261;SDS011;114;48.260;10.988;2023-07-13T05:52:46;8.33;;;3.10;;
261;SDS011;114;48.260;10.988;2023-07-13T05:55:12;3.63;;;2.57;;
261;SDS011;114;48.260;10.988;2023-07-13T05:57:38;4.27;;;2.87;;
261;SDS011;114;48.260;10.988;2023-07-13T06:00:04;8.43;;;2.47;;
261;SDS011;114;48.260;10.988;2023-07-13T06:02:31;8.00;;;2.53;;
261;SDS011;114;48.260;10.988;2023-07-13T06:04:56;6.93;;;2.20;;
261;SDS011;114;48.260;10.988;2023-07-13T06:07:22;3.60;;;3.30;;
261;SDS011;114;48.260;10.988;2023-07-13T06:09:48;3.77;;;1.80;;
261;SDS011;114;48.260;10.988;2023-07-13T06:12:13;7.70;;;2.17;;
261;SDS011;114;48.260;10.988;2023-07-13T06:14:39;2.57;;;1.87;;
261;SDS011;114;48.260;10.988;2023-07-13T06:17:05;2.30;;;1.77;;
261;SDS011;114;48.260;10.988;2023-07-13T06:19:31;5.90;;;1.60;;
261;SDS011;114;48.260;10.988;2023-07-13T06:21:56;3.53;;;2.00;;
261;SDS011;114;48.260;10.988;2023-07-13T06:24:23;6.83;;;2.27;;
261;SDS011;114;48.260;10.988;2023-07-13T06:26:49;9.73;;;2.30;;
261;SDS011;114;48.260;10.988;2023-07-13T06:29:15;4.57;;;2.47;;
261;SDS011;114;48.260;10.988;2023-07-13T06:31:40;3.87;;;2.67;;
261;SDS011;114;48.260;10.988;2023-07-13T06:34:06;7.37;;;2.60;;
261;SDS011;114;48.260;10.988;2023-07-13T06:36:32;3.90;;;3.17;;
261;SDS011;114;48.260;10.988;2023-07-13T06:38:58;18.00;;;5.00;;
261;SDS011;114;48.260;10.988;2023-07-13T06:41:24;12.33;;;2.80;;
261;SDS011;114;48.260;10.988;2023-07-13T06:43:51;7.93;;;2.63;;
261;SDS011;114;48.260;10.988;2023-07-13T06:46:20;4.67;;;2.53;;
261;SDS011;114;48.260;10.988;2023-07-13T06:48:46;8.30;;;3.37;;
261;SDS011;114;48.260;10.988;2023-07-13T06:51:12;2.80;;;1.40;;
261;SDS011;114;48.260;10.988;2023-07-13T06:53:38;3.00;;;1.80;;
261;SDS011;114;48.260;10.988;2023-07-13T06:56:03;4.50;;;2.00;;
261;SDS011;114;48.260;10.988;2023-07-13T06:58:30;3.90;;;1.93;;
261;SDS011;114;48.260;10.988;2023-07-13T07:00:56;4.70;;;2.10;;
261;SDS011;114;48.260;10.988;2023-07-13T07:03:23;13.03;;;3.00;;
261;SDS011;114;48.260;10.988;2023-07-13T07:05:49;3.60;;;1.80;;
261;SDS011;114;48.260;10.988;2023-07-13T07:08:15;4.27;;;1.90;;
261;SDS011;114;48.260;10.988;2023-07-13T07:10:40;8.27;;;2.13;;
261;SDS011;114;48.260;10.988;2023-07-13T07:13:07;14.10;;;2.50;;
261;SDS011;114;48.260;10.988;2023-07-13T07:15:34;14.07;;;2.23;;
261;SDS011;114;48.260;10.988;2023-07-13T07:18:00;4.47;;;1.67;;
261;SDS011;114;48.260;10.988;2023-07-13T07:20:26;4.33;;;1.77;;
261;SDS011;114;48.260;10.988;2023-07-13T07:22:52;5.93;;;2.80;;
261;SDS011;114;48.260;10.988;2023-07-13T07:25:18;17.97;;;3.07;;
261;SDS011;114;48.260;10.988;2023-07-13T07:27:44;1.53;;;1.40;;
261;SDS011;114;48.260;10.988;2023-07-13T07:30:11;1.73;;;1.30;;
261;SDS011;114;48.260;10.988;2023-07-13T07:32:37;7.20;;;1.63;;
261;SDS011;114;48.260;10.988;2023-07-13T07:35:03;6.90;;;2.07;;
261;SDS011;114;48.260;10.988;2023-07-13T07:37:29;6.17;;;1.67;;
261;SDS011;114;48.260;10.988;2023-07-13T07:39:54;4.60;;;1.70;;
261;SDS011;114;48.260;10.988;2023-07-13T07:42:20;4.50;;;1.50;;
261;SDS011;114;48.260;10.988;2023-07-13T07:44:46;5.63;;;1.80;;
261;SDS011;114;48.260;10.988;2023-07-13T07:47:11;6.93;;;1.90;;
261;SDS011;114;48.260;10.988;2023-07-13T07:49:37;6.50;;;1.60;;
261;SDS011;114;48.260;10.988;2023-07-13T07:52:03;8.73;;;1.63;;
261;SDS011;114;48.260;10.988;2023-07-13T07:54:29;2.40;;;1.27;;
261;SDS011;114;48.260;10.988;2023-07-13T07:56:55;4.20;;;1.40;;
261;SDS011;114;48.260;10.988;2023-07-13T07:59:21;5.10;;;1.60;;
261;SDS011;114;48.260;10.988;2023-07-13T08:01:46;9.17;;;1.40;;
261;SDS011;114;48.260;10.988;2023-07-13T08:04:15;3.00;;;1.63;;
261;SDS011;114;48.260;10.988;2023-07-13T08:06:41;6.73;;;1.87;;
261;SDS011;114;48.260;10.988;2023-07-13T08:09:07;3.47;;;1.53;;
261;SDS011;114;48.260;10.988;2023-07-13T08:11:33;8.03;;;1.80;;
261;SDS011;114;48.260;10.988;2023-07-13T08:13:59;4.40;;;1.30;;
261;SDS011;114;48.260;10.988;2023-07-13T08:16:25;2.33;;;1.37;;
261;SDS011;114;48.260;10.988;2023-07-13T08:18:51;3.53;;;1.40;;
261;SDS011;114;48.260;10.988;2023-07-13T08:21:17;5.20;;;1.63;;
261;SDS011;114;48.260;10.988;2023-07-13T08:23:45;4.17;;;1.27;;
261;SDS011;114;48.260;10.988;2023-07-13T08:26:11;10.80;;;1.30;;
261;SDS011;114;48.260;10.988;2023-07-13T08:28:36;2.70;;;1.37;;
261;SDS011;114;48.260;10.988;2023-07-13T08:31:03;8.57;;;1.70;;
261;SDS011;114;48.260;10.988;2023-07-13T08:33:30;4.33;;;1.63;;
261;SDS011;114;48.260;10.988;2023-07-13T08:35:56;3.80;;;1.37;;
261;SDS011;114;48.260;10.988;2023-07-13T08:38:21;7.80;;;1.43;;
261;SDS011;114;48.260;10.988;2023-07-13T08:40:54;17.60;;;1.67;;
261;SDS011;114;48.260;10.988;2023-07-13T08:43:28;1.93;;;1.20;;
261;SDS011;114;48.260;10.988;2023-07-13T08:46:04;34.30;;;2.83;;
261;SDS011;114;48.260;10.988;2023-07-13T08:48:33;3.87;;;1.80;;
261;SDS011;114;48.260;10.988;2023-07-13T08:53:52;4.60;;;1.27;;
261;SDS011;114;48.260;10.988;2023-07-13T08:56:23;5.40;;;1.50;;
261;SDS011;114;48.260;10.988;2023-07-13T08:58:53;13.13;;;2.17;;
261;SDS011;114;48.260;10.988;2023-07-13T09:01:23;11.00;;;1.33;;
261;SDS011;114;48.260;10.988;2023-07-13T09:09:55;12.03;;;1.83;;
261;SDS011;114;48.260;10.988;2023-07-13T09:12:22;19.43;;;3.10;;
261;SDS011;114;48.260;10.988;2023-07-13T09:14:53;5.00;;;1.90;;
261;SDS011;114;48.260;10.988;2023-07-13T09:17:25;2.47;;;2.20;;
261;SDS011;114;48.260;10.988;2023-07-13T09:19:59;2.53;;;1.83;;
261;SDS011;114;48.260;10.988;2023-07-13T09:22:49;2.97;;;1.90;;
261;SDS011;114;48.260;10.988;2023-07-13T09:25:34;4.00;;;1.50;;
261;SDS011;114;48.260;10.988;2023-07-13T09:28:15;5.30;;;1.27;;
261;SDS011;114;48.260;10.988;2023-07-13T09:33:24;1.33;;;1.23;;
261;SDS011;114;48.260;10.988;2023-07-13T09:35:54;3.13;;;1.53;;
261;SDS011;114;48.260;10.988;2023-07-13T09:38:21;7.63;;;1.57;;
261;SDS011;114;48.260;10.988;2023-07-13T09:43:19;7.27;;;1.33;;
261;SDS011;114;48.260;10.988;2023-07-13T09:45:46;3.83;;;1.50;;
261;SDS011;114;48.260;10.988;2023-07-13T09:48:13;4.53;;;1.70;;
261;SDS011;114;48.260;10.988;2023-07-13T09:50:40;7.70;;;1.50;;
261;SDS011;114;48.260;10.988;2023-07-13T09:53:17;11.87;;;1.70;;
261;SDS011;114;48.260;10.988;2023-07-13T09:55:45;3.80;;;1.33;;
261;SDS011;114;48.260;10.988;2023-07-13T09:58:14;8.77;;;1.60;;
261;SDS011;114;48.260;10.988;2023-07-13T10:03:29;18.57;;;2.40;;
261;SDS011;114;48.260;10.988;2023-07-13T10:06:13;7.47;;;1.60;;
261;SDS011;114;48.260;10.988;2023-07-13T10:08:44;8.13;;;1.90;;
261;SDS011;114;48.260;10.988;2023-07-13T10:11:26;2.10;;;1.07;;
261;SDS011;114;48.260;10.988;2023-07-13T10:14:03;1.97;;;1.00;;
261;SDS011;114;48.260;10.988;2023-07-13T10:16:40;2.20;;;0.97;;
261;SDS011;114;48.260;10.988;2023-07-13T10:19:12;1.13;;;1.03;;
261;SDS011;114;48.260;10.988;2023-07-13T10:21:55;1.33;;;0.90;;
261;SDS011;114;48.260;10.988;2023-07-13T10:24:23;6.53;;;1.40;;
261;SDS011;114;48.260;10.988;2023-07-13T10:29:55;2.53;;;1.00;;
261;SDS011;114;48.260;10.988;2023-07-13T10:32:29;3.40;;;1.20;;
261;SDS011;114;48.260;10.988;2023-07-13T10:34:55;3.53;;;1.63;;
261;SDS011;114;48.260;10.988;2023-07-13T10:37:24;2.63;;;1.10;;
261;SDS011;114;48.260;10.988;2023-07-13T10:39:55;27.80;;;2.30;;
261;SDS011;114;48.260;10.988;2023-07-13T10:42:44;8.03;;;1.40;;
261;SDS011;114;48.260;10.988;2023-07-13T10:45:13;15.13;;;1.33;;
261;SDS011;114;48.260;10.988;2023-07-13T10:47:40;3.93;;;1.73;;
261;SDS011;114;48.260;10.988;2023-07-13T10:50:07;4.87;;;1.37;;
261;SDS011;114;48.260;10.988;2023-07-13T11:00:46;3.87;;;1.50;;
261;SDS011;114;48.260;10.988;2023-07-13T11:03:36;5.70;;;1.00;;
261;SDS011;114;48.260;10.988;2023-07-13T11:06:10;8.50;;;1.00;;
261;SDS011;114;48.260;10.988;2023-07-13T11:11:47;2.70;;;1.13;;
261;SDS011;114;48.260;10.988;2023-07-13T11:16:52;5.30;;;1.07;;
261;SDS011;114;48.260;10.988;2023-07-13T11:24:50;13.43;;;2.07;;
261;SDS011;114;48.260;10.988;2023-07-13T11:28:27;1.23;;;0.90;;
261;SDS011;114;48.260;10.988;2023-07-13T11:36:04;5.23;;;1.37;;
261;SDS011;114;48.260;10.988;2023-07-13T11:38:34;5.70;;;1.00;;
261;SDS011;114;48.260;10.988;2023-07-13T11:41:04;1.30;;;1.20;;
261;SDS011;114;48.260;10.988;2023-07-13T11:43:32;1.60;;;0.90;;
261;SDS011;114;48.260;10.988;2023-07-13T11:46:11;3.70;;;1.30;;
261;SDS011;114;48.260;10.988;2023-07-13T11:48:45;2.77;;;1.27;;
261;SDS011;114;48.260;10.988;2023-07-13T11:51:32;5.47;;;0.97;;
261;SDS011;114;48.260;10.988;2023-07-13T11:54:10;6.60;;;1.27;;
261;SDS011;114;48.260;10.988;2023-07-13T11:56:53;4.93;;;1.40;;
261;SDS011;114;48.260;10.988;2023-07-13T11:59:40;1.07;;;0.80;;
261;SDS011;114;48.260;10.988;2023-07-13T12:02:49;1.90;;;1.30;;
261;SDS011;114;48.260;10.988;2023-07-13T12:04:57;1.47;;;1.00;;
261;SDS011;114;48.260;10.988;2023-07-13T12:07:27;1.80;;;0.87;;
261;SDS011;114;48.260;10.988;2023-07-13T12:10:00;3.90;;;1.03;;
261;SDS011;114;48.260;10.988;2023-07-13T12:12:36;2.77;;;1.10;;
261;SDS011;114;48.260;10.988;2023-07-13T12:15:05;5.53;;;1.07;;
261;SDS011;114;48.260;10.988;2023-07-13T12:17:33;1.23;;;1.03;;
261;SDS011;114;48.260;10.988;2023-07-13T12:20:00;5.10;;;0.97;;
261;SDS011;114;48.260;10.988;2023-07-13T12:22:31;3.37;;;1.10;;
261;SDS011;114;48.260;10.988;2023-07-13T12:24:59;4.37;;;1.37;;
261;SDS011;114;48.260;10.988;2023-07-13T12:27:26;1.60;;;1.33;;
261;SDS011;114;48.260;10.988;2023-07-13T12:30:00;6.40;;;1.20;;
261;SDS011;114;48.260;10.988;2023-07-13T12:32:28;5.03;;;1.37;;
261;SDS011;114;48.260;10.988;2023-07-13T12:34:57;3.30;;;1.43;;
261;SDS011;114;48.260;10.988;2023-07-13T12:37:41;3.20;;;1.13;;
261;SDS011;114;48.260;10.988;2023-07-13T12:40:12;2.50;;;0.90;;
261;SDS011;114;48.260;10.988;2023-07-13T12:42:40;5.33;;;1.10;;
261;SDS011;114;48.260;10.988;2023-07-13T12:47:52;3.93;;;1.27;;
261;SDS011;114;48.260;10.988;2023-07-13T12:50:22;2.13;;;1.20;;
261;SDS011;114;48.260;10.988;2023-07-13T12:52:54;2.30;;;1.85;;
261;SDS011;114;48.260;10.988;2023-07-13T12:55:24;7.05;;;1.00;;
261;SDS011;114;48.260;10.988;2023-07-13T13:00:28;6.88;;;1.60;;
261;SDS011;114;48.260;10.988;2023-07-13T13:02:58;1.33;;;0.80;;
261;SDS011;114;48.260;10.988;2023-07-13T13:05:30;5.13;;;1.10;;
261;SDS011;114;48.260;10.988;2023-07-13T13:07:57;2.15;;;1.00;;
261;SDS011;114;48.260;10.988;2023-07-13T13:10:23;3.95;;;1.25;;
261;SDS011;114;48.260;10.988;2023-07-13T13:12:49;2.38;;;1.23;;
261;SDS011;114;48.260;10.988;2023-07-13T13:15:17;3.58;;;1.10;;
261;SDS011;114;48.260;10.988;2023-07-13T13:17:42;1.10;;;1.00;;
261;SDS011;114;48.260;10.988;2023-07-13T13:20:13;4.28;;;1.67;;
261;SDS011;114;48.260;10.988;2023-07-13T13:22:41;5.85;;;1.80;;
261;SDS011;114;48.260;10.988;2023-07-13T13:25:09;7.13;;;1.10;;
261;SDS011;114;48.260;10.988;2023-07-13T13:27:36;1.92;;;1.00;;
261;SDS011;114;48.260;10.988;2023-07-13T13:30:02;7.32;;;1.30;;
261;SDS011;114;48.260;10.988;2023-07-13T13:32:28;3.90;;;0.90;;
261;SDS011;114;48.260;10.988;2023-07-13T13:34:54;4.03;;;1.20;;
261;SDS011;114;48.260;10.988;2023-07-13T13:37:20;2.15;;;0.90;;
261;SDS011;114;48.260;10.988;2023-07-13T13:39:48;2.70;;;0.95;;
261;SDS011;114;48.260;10.988;2023-07-13T13:42:16;12.05;;;1.10;;
261;SDS011;114;48.260;10.988;2023-07-13T13:44:42;3.67;;;1.17;;
261;SDS011;114;48.260;10.988;2023-07-13T13:47:17;2.22;;;1.10;;
261;SDS011;114;48.260;10.988;2023-07-13T13:50:14;3.80;;;1.08;;
261;SDS011;114;48.260;10.988;2023-07-13T13:52:42;2.03;;;1.08;;
261;SDS011;114;48.260;10.988;2023-07-13T13:55:15;3.45;;;1.02;;
261;SDS011;114;48.260;10.988;2023-07-13T13:57:44;4.38;;;1.30;;
261;SDS011;114;48.260;10.988;2023-07-13T14:00:11;5.35;;;1.30;;
261;SDS011;114;48.260;10.988;2023-07-13T14:02:39;4.32;;;1.00;;
261;SDS011;114;48.260;10.988;2023-07-13T14:05:11;6.90;;;1.20;;
261;SDS011;114;48.260;10.988;2023-07-13T14:07:38;4.82;;;1.45;;
261;SDS011;114;48.260;10.988;2023-07-13T14:10:08;8.55;;;3.83;;
261;SDS011;114;48.260;10.988;2023-07-13T14:12:44;3.15;;;1.13;;
261;SDS011;114;48.260;10.988;2023-07-13T14:15:21;5.90;;;1.40;;
261;SDS011;114;48.260;10.988;2023-07-13T14:17:49;7.43;;;1.15;;
261;SDS011;114;48.260;10.988;2023-07-13T14:20:15;2.10;;;1.80;;
261;SDS011;114;48.260;10.988;2023-07-13T14:22:42;2.78;;;1.08;;
261;SDS011;114;48.260;10.988;2023-07-13T14:25:11;4.38;;;0.90;;
261;SDS011;114;48.260;10.988;2023-07-13T14:27:41;3.25;;;0.95;;
261;SDS011;114;48.260;10.988;2023-07-13T14:30:15;6.47;;;1.65;;
261;SDS011;114;48.260;10.988;2023-07-13T14:32:43;1.13;;;0.90;;
261;SDS011;114;48.260;10.988;2023-07-13T14:35:13;3.65;;;1.20;;
261;SDS011;114;48.260;10.988;2023-07-13T14:37:40;7.63;;;1.00;;
261;SDS011;114;48.260;10.988;2023-07-13T14:42:38;1.70;;;0.85;;
261;SDS011;114;48.260;10.988;2023-07-13T14:45:04;2.97;;;1.23;;
261;SDS011;114;48.260;10.988;2023-07-13T14:47:30;1.45;;;1.10;;
261;SDS011;114;48.260;10.988;2023-07-13T14:49:56;1.90;;;1.10;;
261;SDS011;114;48.260;10.988;2023-07-13T14:52:22;3.25;;;1.00;;
261;SDS011;114;48.260;10.988;2023-07-13T14:54:49;7.03;;;0.80;;
261;SDS011;114;48.260;10.988;2023-07-13T14:57:16;1.65;;;1.00;;
261;SDS011;114;48.260;10.988;2023-07-13T14:59:46;1.17;;;0.52;;
261;SDS011;114;48.260;10.988;2023-07-13T15:02:17;11.77;;;1.40;;
261;SDS011;114;48.260;10.988;2023-07-13T15:04:50;2.40;;;0.90;;
261;SDS011;114;48.260;10.988;2023-07-13T15:07:16;2.45;;;1.25;;
261;SDS011;114;48.260;10.988;2023-07-13T15:09:43;3.35;;;0.63;;
261;SDS011;114;48.260;10.988;2023-07-13T15:12:09;2.72;;;1.13;;
261;SDS011;114;48.260;10.988;2023-07-13T15:14:35;2.30;;;0.70;;
261;SDS011;114;48.260;10.988;2023-07-13T15:17:01;1.77;;;0.80;;
261;SDS011;114;48.260;10.988;2023-07-13T15:19:27;12.55;;;0.90;;
261;SDS011;114;48.260;10.988;2023-07-13T15:21:56;4.05;;;0.80;;
261;SDS011;114;48.260;10.988;2023-07-13T15:24:25;2.88;;;0.90;;
261;SDS011;114;48.260;10.988;2023-07-13T15:26:51;4.47;;;1.08;;
261;SDS011;114;48.260;10.988;2023-07-13T15:29:17;4.32;;;0.98;;
261;SDS011;114;48.260;10.988;2023-07-13T15:31:43;5.35;;;0.90;;
261;SDS011;114;48.260;10.988;2023-07-13T15:34:12;2.55;;;0.70;;
261;SDS011;114;48.260;10.988;2023-07-13T15:36:41;4.15;;;1.60;;
261;SDS011;114;48.260;10.988;2023-07-13T15:39:08;16.80;;;1.38;;
261;SDS011;114;48.260;10.988;2023-07-13T15:41:43;1.52;;;0.95;;
261;SDS011;114;48.260;10.988;2023-07-13T15:44:28;5.15;;;1.52;;
261;SDS011;114;48.260;10.988;2023-07-13T15:46:55;6.45;;;1.17;;
261;SDS011;114;48.260;10.988;2023-07-13T15:49:22;2.67;;;1.17;;
261;SDS011;114;48.260;10.988;2023-07-13T15:51:47;3.47;;;0.93;;
261;SDS011;114;48.260;10.988;2023-07-13T15:54:15;5.45;;;1.30;;
261;SDS011;114;48.260;10.988;2023-07-13T15:56:43;5.47;;;1.25;;
261;SDS011;114;48.260;10.988;2023-07-13T15:59:10;3.40;;;1.02;;
261;SDS011;114;48.260;10.988;2023-07-13T16:01:37;4.72;;;0.80;;
261;SDS011;114;48.260;10.988;2023-07-13T16:04:03;4.22;;;1.10;;
261;SDS011;114;48.260;10.988;2023-07-13T16:06:34;6.07;;;0.65;;
261;SDS011;114;48.260;10.988;2023-07-13T16:09:02;2.00;;;1.00;;
261;SDS011;114;48.260;10.988;2023-07-13T16:11:35;1.20;;;1.10;;
261;SDS011;114;48.260;10.988;2023-07-13T16:14:02;2.53;;;0.77;;
261;SDS011;114;48.260;10.988;2023-07-13T16:16:30;4.57;;;1.20;;
261;SDS011;114;48.260;10.988;2023-07-13T16:18:59;1.88;;;0.90;;
261;SDS011;114;48.260;10.988;2023-07-13T16:21:27;2.28;;;1.00;;
261;SDS011;114;48.260;10.988;2023-07-13T16:23:56;5.25;;;1.20;;
261;SDS011;114;48.260;10.988;2023-07-13T16:28:49;3.70;;;0.88;;